Millnerville, Iowa
Current Conditions -  °F | °C
As of 5:55 PM on Sunday 23 Nov 2014 (Local Time) from KLRJ Reporting Station
Broken Clouds Broken Clouds  
Wind Chill: 32°   Ceiling: 4000
Heat Index: 39°   Visibility: 10mi
Dew Point: 32°   Wind: 12mph
Humidity: 75%   Direction: 330°NNW
Pressure: 29.54"   Gusts: 21mph
Location:  42.7082°N, 96.485°W
Report Text: KLRJ 232355Z AUTO 33010G18KT 10SM BKN040 BKN046 04/M00 A2954 RMK AO2
Loading
Personal Weather Stations






























Interactive Weather Map New forecast layout! Learn more

10-Day Weather Forecast

Advertisements
Track Severe Weather on mobile